createdAt,value
2022-10-18T05:11:42.911Z,15.49
2022-10-18T05:34:48.063Z,15.26
2022-10-18T05:38:09.301Z,14.98
2022-10-18T05:59:04.553Z,14.50
2022-10-18T06:11:29.105Z,15.14
2022-10-18T06:43:54.449Z,17.45
2022-10-18T06:46:44.363Z,17.45
2022-10-18T06:49:18.955Z,17.38
2022-10-18T06:51:46.906Z,17.28
2022-10-18T06:54:19.143Z,16.98
2022-10-18T06:56:52.917Z,17.46
2022-10-18T07:03:53.831Z,17.49
2022-10-18T07:06:35.094Z,18.14
2022-10-18T07:09:51.344Z,18.21
2022-10-18T07:12:46.619Z,18.34
2022-10-18T07:16:01.318Z,19.07
2022-10-18T07:22:46.822Z,19.41
2022-10-18T07:29:19.480Z,19.63
2022-10-18T07:32:24.976Z,20.08
2022-10-18T07:46:50.913Z,24.04
2022-10-18T07:56:28.886Z,24.27
2022-10-18T07:58:56.924Z,24.82
2022-10-18T08:01:25.633Z,24.41
2022-10-18T08:03:53.902Z,22.49
2022-10-18T08:06:23.145Z,22.84
2022-10-18T08:08:51.035Z,23.99
2022-10-18T08:11:21.304Z,25.20
2022-10-18T08:13:49.139Z,27.07
2022-10-18T08:16:22.740Z,27.68
2022-10-18T08:18:50.806Z,28.77
2022-10-18T08:21:20.256Z,28.24
2022-10-18T08:23:48.827Z,27.21
2022-10-18T08:26:19.009Z,27.80
2022-10-18T08:28:54.186Z,28.53
2022-10-18T08:31:31.260Z,29.01
2022-10-18T08:33:58.753Z,28.74
2022-10-18T08:36:26.332Z,29.48
2022-10-18T08:38:53.886Z,30.12
2022-10-18T08:41:36.245Z,29.40
2022-10-18T08:44:18.797Z,30.00
2022-10-18T08:46:49.500Z,30.68
2022-10-18T08:49:47.269Z,29.88
2022-10-18T08:52:48.813Z,29.53
2022-10-18T08:55:25.616Z,29.23
2022-10-18T08:57:53.406Z,30.01
2022-10-18T09:00:24.094Z,29.67
2022-10-18T09:03:13.379Z,28.28
2022-10-18T09:05:55.333Z,28.59
2022-10-18T09:08:22.793Z,29.97
2022-10-18T09:11:10.228Z,29.69
2022-10-18T09:13:40.360Z,30.11
2022-10-18T09:16:21.363Z,30.82
2022-10-18T09:19:03.703Z,30.60
2022-10-18T09:21:54.122Z,30.91
2022-10-18T09:24:37.444Z,29.33
2022-10-18T09:27:26.806Z,29.94
2022-10-18T09:30:10.196Z,30.39
2022-10-18T09:32:51.082Z,31.29
2022-10-18T09:35:24.260Z,29.67
2022-10-18T09:38:01.015Z,28.27
2022-10-18T09:40:33.184Z,27.88
2022-10-18T09:43:08.254Z,28.73
2022-10-18T09:45:39.995Z,29.57
2022-10-18T09:48:17.261Z,29.78
2022-10-18T09:51:02.382Z,30.79
2022-10-18T09:53:41.215Z,31.06
2022-10-18T09:56:22.562Z,30.25
2022-10-18T09:58:51.579Z,29.57
2022-10-18T10:01:23.111Z,28.54
2022-10-18T10:03:51.027Z,29.35
2022-10-18T10:06:18.506Z,28.88
2022-10-18T10:08:55.056Z,27.80
2022-10-18T10:11:58.396Z,28.24
2022-10-18T10:14:28.847Z,27.45
2022-10-18T10:17:05.852Z,28.01
2022-10-18T10:19:37.678Z,27.54
2022-10-18T10:22:14.171Z,27.92
2022-10-18T10:24:53.312Z,28.02
2022-10-18T10:27:34.041Z,28.60
2022-10-18T10:30:07.565Z,28.64
2022-10-18T10:32:49.478Z,28.83
2022-10-18T10:35:54.376Z,28.88
2022-10-18T10:38:29.658Z,28.56
2022-10-18T10:40:58.356Z,28.25
2022-10-18T10:43:44.311Z,28.19
2022-10-18T10:46:20.296Z,28.61
2022-10-18T10:49:21.648Z,28.52
2022-10-18T10:52:02.521Z,28.57
2022-10-18T10:54:50.290Z,28.43
2022-10-18T10:57:28.306Z,28.01
2022-10-18T10:59:59.736Z,27.70
2022-10-18T11:02:36.071Z,27.95
2022-10-18T11:05:23.205Z,28.06
2022-10-18T11:07:55.355Z,27.66
2022-10-18T11:10:31.106Z,28.07
2022-10-18T11:13:23.739Z,27.88
2022-10-18T11:16:00.444Z,27.83
2022-10-18T11:18:34.270Z,28.03
2022-10-18T11:21:11.605Z,27.82
2022-10-18T11:23:42.123Z,27.72
2022-10-18T11:26:12.504Z,27.78
2022-10-18T11:29:12.273Z,27.94
2022-10-18T11:31:45.165Z,28.25
2022-10-18T11:34:46.373Z,27.79
2022-10-18T11:37:45.207Z,27.93
2022-10-18T11:40:51.458Z,27.85
2022-10-18T11:44:04.024Z,27.90
2022-10-18T11:47:10.343Z,28.06
2022-10-18T11:49:49.763Z,28.32
2022-10-18T11:52:34.634Z,27.81
2022-10-18T11:55:23.004Z,28.14
2022-10-18T11:58:12.638Z,27.65
2022-10-18T12:00:50.971Z,28.03
2022-10-18T12:03:55.749Z,28.20
2022-10-18T12:06:28.350Z,27.96
2022-10-18T12:09:02.956Z,27.67
2022-10-18T12:11:46.913Z,27.70
2022-10-18T12:14:30.802Z,27.65
2022-10-18T12:17:35.689Z,27.66
2022-10-18T12:19:52.306Z,27.62
2022-10-18T12:22:22.783Z,28.10
2022-10-18T12:24:50.565Z,27.73
2022-10-18T12:27:22.718Z,27.97
2022-10-18T12:30:06.796Z,27.86
2022-10-18T12:32:36.550Z,27.97
2022-10-18T12:35:17.032Z,27.93
2022-10-18T12:38:06.178Z,28.02
2022-10-18T12:40:41.507Z,27.96
2022-10-18T12:43:16.832Z,28.10
2022-10-18T12:46:10.712Z,28.15
2022-10-18T12:48:45.481Z,28.01
2022-10-18T12:51:15.400Z,27.92
2022-10-18T12:53:49.177Z,27.86
2022-10-18T12:56:28.583Z,27.99
2022-10-18T12:59:14.348Z,28.34
2022-10-18T13:01:50.883Z,28.13
2022-10-18T13:04:27.524Z,28.26
2022-10-18T13:06:58.162Z,28.04
2022-10-18T13:09:28.811Z,27.61
2022-10-18T13:12:18.795Z,27.59
2022-10-18T13:15:26.346Z,27.78
2022-10-18T13:18:03.296Z,27.67
2022-10-18T13:20:44.278Z,27.60
2022-10-18T13:23:35.362Z,27.21
2022-10-18T13:26:20.355Z,27.34
2022-10-18T13:29:20.749Z,27.23
2022-10-18T13:31:59.583Z,26.92
2022-10-18T13:34:34.797Z,27.11
2022-10-18T13:37:11.689Z,27.31
2022-10-18T13:39:48.584Z,27.29
2022-10-18T13:43:04.599Z,27.11
2022-10-18T13:52:27.722Z,27.43
2022-10-18T13:55:19.693Z,27.58
2022-10-18T13:57:59.106Z,27.60
2022-10-18T14:00:32.388Z,27.50
2022-10-18T14:03:00.260Z,27.36
2022-10-18T14:06:26.531Z,27.25
2022-10-18T14:10:09.149Z,27.11
2022-10-18T14:13:13.169Z,27.14
2022-10-18T14:16:23.384Z,27.06
2022-10-18T14:18:57.907Z,26.88
2022-10-18T14:21:37.703Z,27.01
2022-10-18T14:24:17.774Z,27.00
2022-10-18T14:26:45.334Z,27.01
2022-10-18T14:29:22.216Z,26.41
2022-10-18T14:32:03.138Z,26.59
2022-10-18T14:34:37.892Z,26.83
2022-10-18T14:37:39.477Z,26.90
2022-10-18T14:40:40.819Z,26.78
2022-10-18T14:43:16.874Z,26.87
2022-10-18T14:49:57.860Z,26.19
2022-10-18T14:52:35.129Z,26.08
2022-10-18T14:55:16.348Z,26.02
2022-10-18T14:57:46.461Z,26.13
2022-10-18T15:00:31.438Z,25.88
2022-10-18T15:03:13.695Z,26.03
2022-10-18T15:06:10.468Z,26.03
2022-10-18T15:08:44.975Z,25.97
2022-10-18T15:11:20.241Z,26.12
2022-10-18T15:14:13.884Z,26.03
2022-10-18T15:16:46.866Z,26.16
2022-10-18T15:19:14.412Z,26.07
2022-10-18T15:25:33.020Z,25.82
2022-10-18T15:28:39.687Z,26.10
2022-10-18T15:31:33.617Z,26.23
2022-10-18T15:34:16.587Z,26.32
2022-10-18T15:36:49.607Z,26.27
2022-10-18T15:39:21.522Z,26.18
2022-10-18T15:41:55.399Z,26.02
2022-10-18T15:44:51.279Z,25.89
2022-10-18T15:47:21.744Z,25.85
2022-10-18T15:49:56.260Z,25.81
2022-10-18T15:52:39.353Z,25.66
2022-10-18T15:55:31.611Z,25.59
2022-10-18T15:58:23.028Z,25.58
2022-10-18T16:00:52.666Z,25.64
2022-10-18T16:03:24.706Z,25.58
2022-10-18T16:06:07.948Z,25.43
2022-10-18T16:08:44.518Z,25.33
2022-10-18T16:11:14.190Z,25.11
2022-10-18T16:13:42.682Z,24.83
2022-10-18T16:16:19.785Z,24.90
2022-10-18T16:18:47.769Z,24.80
2022-10-18T16:21:27.665Z,24.86
2022-10-18T16:23:58.586Z,24.56
2022-10-18T16:26:27.740Z,24.13
2022-10-18T16:28:56.234Z,24.09
2022-10-18T16:31:26.491Z,24.14
2022-10-18T16:33:55.187Z,23.90
2022-10-18T16:36:26.241Z,23.75
2022-10-18T16:38:55.170Z,23.80
2022-10-18T16:41:23.367Z,23.20
2022-10-18T16:43:56.285Z,23.21
2022-10-18T16:46:30.323Z,23.35
2022-10-18T16:48:58.613Z,23.21
2022-10-18T16:51:26.346Z,22.84
2022-10-18T16:53:54.420Z,22.61
2022-10-18T16:56:23.456Z,22.32
2022-10-18T16:58:51.710Z,22.63
2022-10-18T17:01:21.927Z,22.72
2022-10-18T17:03:52.240Z,22.73
2022-10-18T17:06:23.676Z,22.58
2022-10-18T17:08:54.460Z,22.43
2022-10-18T17:11:27.045Z,22.42
2022-10-18T17:13:55.424Z,22.39
2022-10-18T17:18:59.021Z,22.57
2022-10-18T17:21:27.835Z,22.63
2022-10-18T17:23:55.931Z,22.43
2022-10-18T17:26:28.859Z,21.53
2022-10-18T17:29:00.568Z,21.19
2022-10-18T17:31:29.747Z,21.08
2022-10-18T17:34:05.927Z,21.01
2022-10-18T17:36:34.116Z,21.00
2022-10-18T17:39:02.172Z,20.92
2022-10-18T17:41:30.823Z,21.41
2022-10-18T17:43:58.430Z,21.17
2022-10-18T17:46:26.117Z,21.31
2022-10-18T17:48:54.031Z,21.32
2022-10-18T17:51:22.058Z,20.63
2022-10-18T17:53:49.607Z,20.43
2022-10-18T17:56:17.164Z,20.35
2022-10-18T17:58:45.686Z,20.34
2022-10-18T18:01:18.694Z,20.28
2022-10-18T18:03:49.815Z,20.17
2022-10-18T18:06:20.164Z,20.36
2022-10-18T18:08:49.003Z,20.26
2022-10-18T18:11:17.848Z,20.18
2022-10-18T18:13:47.707Z,20.20
2022-10-18T18:16:21.793Z,20.21
2022-10-18T18:18:51.965Z,20.24
2022-10-18T18:21:20.347Z,20.00
2022-10-18T18:23:48.817Z,20.08
2022-10-18T18:26:18.028Z,20.17
2022-10-18T18:28:45.933Z,19.99
2022-10-18T18:31:19.639Z,19.99
2022-10-18T18:33:47.130Z,20.13
2022-10-18T18:36:14.669Z,20.16
2022-10-18T18:38:45.322Z,20.01
2022-10-18T18:41:21.994Z,20.21
2022-10-18T18:43:58.454Z,20.13
2022-10-18T18:46:29.066Z,20.30
2022-10-18T18:48:59.959Z,20.43
2022-10-18T18:51:28.552Z,20.33
2022-10-18T18:53:56.085Z,20.15
2022-10-18T18:56:25.597Z,19.80
2022-10-18T18:58:54.013Z,20.01
2022-10-18T19:01:24.115Z,20.08
2022-10-18T19:03:54.463Z,19.98
2022-10-18T19:06:34.789Z,19.92
2022-10-18T19:09:04.874Z,19.79
2022-10-18T19:11:34.755Z,19.80
2022-10-18T19:14:03.067Z,19.90
2022-10-18T19:16:41.433Z,20.09
2022-10-18T19:19:16.578Z,20.24
2022-10-18T19:21:53.290Z,19.83
2022-10-18T19:24:22.825Z,19.55
2022-10-18T19:26:55.749Z,19.20
2022-10-18T19:29:29.838Z,19.18
2022-10-18T19:32:00.752Z,18.99
2022-10-18T19:34:30.507Z,18.80
2022-10-18T19:36:58.266Z,18.69
2022-10-18T19:39:31.349Z,18.62
2022-10-18T19:42:03.596Z,18.89
2022-10-18T19:44:33.330Z,18.90
2022-10-18T19:47:01.568Z,18.98
2022-10-18T19:49:36.236Z,19.05
2022-10-18T19:52:06.355Z,19.14
2022-10-18T19:54:37.174Z,19.17
2022-10-18T19:57:05.267Z,19.44
2022-10-18T19:59:33.493Z,19.51
2022-10-18T20:02:02.172Z,19.48
2022-10-18T20:04:34.687Z,19.43
2022-10-18T20:07:03.277Z,19.50
2022-10-18T20:09:37.483Z,19.34
2022-10-18T20:12:17.652Z,19.45
2022-10-18T20:14:45.718Z,19.48
2022-10-18T20:17:18.531Z,19.31
2022-10-18T20:19:53.949Z,19.30
2022-10-18T20:22:35.575Z,19.32
2022-10-18T20:25:05.225Z,19.09
2022-10-18T20:27:34.373Z,19.02
2022-10-18T20:30:14.802Z,19.04
2022-10-18T20:32:54.279Z,19.14
2022-10-18T20:35:31.206Z,18.86
2022-10-18T20:38:01.662Z,19.06
2022-10-18T20:40:37.885Z,19.17
2022-10-18T20:43:14.096Z,19.15
2022-10-18T20:45:45.251Z,17.90
2022-10-18T20:48:12.900Z,17.67
2022-10-18T20:50:42.194Z,17.87
2022-10-18T20:53:09.755Z,18.17
2022-10-18T20:55:38.969Z,18.07
2022-10-18T20:58:07.017Z,17.76
2022-10-18T21:00:35.429Z,17.61
2022-10-18T21:03:03.795Z,17.60
2022-10-18T21:05:32.828Z,17.56
2022-10-18T21:08:01.430Z,17.73
2022-10-18T21:10:35.427Z,17.80
2022-10-18T21:13:15.236Z,17.96
2022-10-18T21:15:56.039Z,17.77
2022-10-18T21:18:25.657Z,17.72
2022-10-18T21:20:54.029Z,17.70
2022-10-18T21:23:22.775Z,18.19
2022-10-18T21:25:51.328Z,18.26
2022-10-18T21:28:18.971Z,18.06
2022-10-18T21:30:46.470Z,18.01
2022-10-18T21:33:16.667Z,17.46
2022-10-18T21:35:50.219Z,17.48
2022-10-18T21:38:18.178Z,17.63
2022-10-18T21:40:55.992Z,17.66
2022-10-18T21:48:02.640Z,17.66
2022-10-18T21:50:30.395Z,17.77
2022-10-18T21:53:01.657Z,17.92
2022-10-18T21:55:29.396Z,17.17
2022-10-18T21:57:57.059Z,17.20
2022-10-18T22:00:24.713Z,17.20
2022-10-18T22:03:38.040Z,17.08
2022-10-18T22:09:31.140Z,17.63
2022-10-18T22:12:51.895Z,17.71
2022-10-18T22:15:24.850Z,17.61
2022-10-18T22:17:57.041Z,17.76
2022-10-18T22:20:35.286Z,17.88
2022-10-18T22:23:13.107Z,17.86
2022-10-18T22:25:40.917Z,17.97
2022-10-18T22:28:16.420Z,17.70
2022-10-18T22:30:46.408Z,17.62
2022-10-18T22:33:19.268Z,17.58
2022-10-18T22:35:54.412Z,17.50
2022-10-18T22:38:26.559Z,17.78
2022-10-18T22:41:05.406Z,17.92
2022-10-18T22:43:34.635Z,17.51
2022-10-18T22:46:10.750Z,17.53
2022-10-18T22:48:41.338Z,17.68
2022-10-18T22:51:11.954Z,17.50
2022-10-18T22:53:40.325Z,17.60
2022-10-18T22:56:11.540Z,17.54
2022-10-18T22:58:39.223Z,16.86
2022-10-18T23:01:12.305Z,16.64
2022-10-18T23:07:18.974Z,16.50
2022-10-18T23:09:48.489Z,16.83
2022-10-18T23:12:16.232Z,16.57
2022-10-18T23:14:44.711Z,16.57
2022-10-18T23:17:12.584Z,16.62
2022-10-18T23:19:40.141Z,16.68
2022-10-18T23:22:07.849Z,16.61
2022-10-18T23:24:38.547Z,16.91
2022-10-18T23:30:43.007Z,16.46
2022-10-18T23:33:13.219Z,17.01
2022-10-18T23:35:43.530Z,17.06
2022-10-18T23:38:15.245Z,17.08
2022-10-18T23:40:42.919Z,17.11
2022-10-18T23:43:10.580Z,16.41
2022-10-18T23:45:38.864Z,15.76
2022-10-18T23:48:07.002Z,16.16
2022-10-18T23:50:34.573Z,16.23
2022-10-18T23:53:02.301Z,16.40
2022-10-18T23:55:32.226Z,16.38
2022-10-18T23:58:01.957Z,16.48
